createdAt,value
2023-02-06T00:01:44.345Z,3.47
2023-02-06T00:04:13.335Z,3.52
2023-02-06T00:06:43.010Z,3.53
2023-02-06T00:09:10.238Z,3.45
2023-02-06T00:11:36.868Z,3.53
2023-02-06T00:14:05.908Z,3.50
2023-02-06T00:16:34.318Z,3.48
2023-02-06T00:19:01.623Z,3.11
2023-02-06T00:21:29.266Z,3.43
2023-02-06T00:23:57.850Z,2.92
2023-02-06T00:26:25.560Z,3.38
2023-02-06T00:28:54.764Z,3.39
2023-02-06T00:31:21.979Z,3.40
2023-02-06T00:33:50.915Z,3.40
2023-02-06T00:36:17.615Z,3.38
2023-02-06T00:38:46.431Z,3.41
2023-02-06T00:41:15.385Z,3.40
2023-02-06T00:43:43.452Z,3.31
2023-02-06T00:46:10.256Z,3.38
2023-02-06T00:48:39.431Z,3.38
2023-02-06T00:51:06.191Z,3.38
2023-02-06T00:53:32.833Z,3.35
2023-02-06T00:55:59.463Z,3.38
2023-02-06T00:58:26.083Z,3.21
2023-02-06T01:00:53.340Z,3.28
2023-02-06T01:03:20.033Z,3.28
2023-02-06T01:05:46.647Z,3.27
2023-02-06T01:08:13.283Z,3.17
2023-02-06T01:10:43.998Z,3.24
2023-02-06T01:13:11.719Z,3.09
2023-02-06T01:15:38.332Z,3.17
2023-02-06T01:18:05.545Z,3.10
2023-02-06T01:20:32.376Z,3.15
2023-02-06T01:22:58.950Z,3.06
2023-02-06T01:25:25.755Z,3.03
2023-02-06T01:27:52.414Z,3.08
2023-02-06T01:30:19.152Z,3.03
2023-02-06T01:32:45.894Z,3.05
2023-02-06T01:35:13.239Z,3.07
2023-02-06T01:37:40.454Z,2.99
2023-02-06T01:40:10.243Z,3.08
2023-02-06T01:42:40.080Z,3.09
2023-02-06T01:45:36.172Z,3.04
2023-02-06T01:48:11.280Z,3.01
2023-02-06T01:50:41.222Z,3.04
2023-02-06T01:53:08.453Z,2.93
2023-02-06T01:55:41.019Z,2.96
2023-02-06T01:58:10.364Z,2.99
2023-02-06T02:00:37.157Z,3.09
2023-02-06T02:03:04.976Z,2.98
2023-02-06T02:05:33.458Z,3.17
2023-02-06T02:08:06.386Z,3.08
2023-02-06T02:10:36.587Z,2.75
2023-02-06T02:13:03.171Z,3.20
2023-02-06T02:15:55.883Z,3.21
2023-02-06T02:18:43.137Z,3.22
2023-02-06T02:21:28.050Z,3.23
2023-02-06T02:24:12.761Z,3.26
2023-02-06T02:26:48.942Z,3.28
2023-02-06T02:29:40.293Z,3.29
2023-02-06T02:32:30.560Z,3.31
2023-02-06T02:35:23.549Z,3.30
2023-02-06T02:37:56.096Z,3.34
2023-02-06T02:40:39.305Z,3.37
2023-02-06T02:43:18.314Z,3.32
2023-02-06T02:45:57.063Z,3.39
2023-02-06T02:48:28.341Z,3.39
2023-02-06T02:50:56.499Z,3.21
2023-02-06T02:53:23.132Z,3.31
2023-02-06T02:55:49.737Z,3.42
2023-02-06T02:58:20.317Z,3.34
2023-02-06T03:00:52.257Z,3.30
2023-02-06T03:03:24.981Z,3.27
2023-02-06T03:06:29.946Z,3.20
2023-02-06T03:09:08.528Z,3.44
2023-02-06T03:11:41.761Z,3.32
2023-02-06T03:14:30.283Z,3.39
2023-02-06T03:17:09.140Z,3.38
2023-02-06T03:19:41.234Z,2.89
2023-02-06T03:22:08.074Z,3.42
2023-02-06T03:24:39.223Z,3.43
2023-02-06T03:27:11.557Z,3.45
2023-02-06T03:29:39.745Z,3.44
2023-02-06T03:32:15.591Z,3.43
2023-02-06T03:34:58.035Z,2.82
2023-02-06T03:37:25.597Z,3.37
2023-02-06T03:39:59.293Z,3.32
2023-02-06T03:42:26.829Z,3.28
2023-02-06T03:45:12.684Z,3.26
2023-02-06T03:47:40.204Z,3.22
2023-02-06T03:50:10.736Z,3.06
2023-02-06T03:52:41.196Z,3.14
2023-02-06T03:55:14.280Z,3.09
2023-02-06T03:57:44.749Z,2.96
2023-02-06T04:00:14.053Z,2.97
2023-02-06T04:02:42.263Z,2.92
2023-02-06T04:05:11.134Z,2.92
2023-02-06T04:07:37.766Z,2.90
2023-02-06T04:10:04.779Z,2.81
2023-02-06T04:12:33.592Z,2.77
2023-02-06T04:15:03.038Z,2.76
2023-02-06T04:17:46.412Z,2.68
2023-02-06T04:20:21.784Z,2.40
2023-02-06T04:22:48.416Z,2.59
2023-02-06T04:25:15.052Z,2.54
2023-02-06T04:27:41.639Z,2.56
2023-02-06T04:30:09.032Z,2.55
2023-02-06T04:32:35.649Z,2.41
2023-02-06T04:35:02.244Z,2.42
2023-02-06T04:37:28.856Z,2.48
2023-02-06T04:39:55.516Z,2.53
2023-02-06T04:42:22.786Z,2.54
2023-02-06T04:44:49.431Z,2.54
2023-02-06T04:47:16.282Z,2.44
2023-02-06T04:49:45.175Z,2.56
2023-02-06T04:52:11.751Z,2.56
2023-02-06T04:54:38.287Z,2.58
2023-02-06T04:57:07.318Z,2.42
2023-02-06T04:59:33.940Z,2.57
2023-02-06T05:02:00.554Z,2.58
2023-02-06T05:04:27.317Z,2.59
2023-02-06T05:06:53.897Z,2.65
2023-02-06T05:09:20.488Z,2.69
2023-02-06T05:11:47.092Z,2.38
2023-02-06T05:14:13.659Z,2.73
2023-02-06T05:16:40.328Z,2.75
2023-02-06T05:19:06.875Z,2.77
2023-02-06T05:21:33.552Z,2.71
2023-02-06T05:24:00.108Z,2.28
2023-02-06T05:26:26.848Z,2.74
2023-02-06T05:28:53.408Z,2.77
2023-02-06T05:31:22.390Z,2.87
2023-02-06T05:33:52.654Z,2.79
2023-02-06T05:36:20.138Z,2.85
2023-02-06T05:38:47.315Z,2.90
2023-02-06T05:41:14.665Z,2.88
2023-02-06T05:43:41.242Z,2.79
2023-02-06T05:46:12.094Z,2.86
2023-02-06T05:48:39.067Z,2.91
2023-02-06T05:51:05.877Z,2.81
2023-02-06T05:53:34.971Z,2.88
2023-02-06T05:56:04.063Z,2.44
2023-02-06T05:58:31.339Z,2.30
2023-02-06T06:00:58.363Z,2.80
2023-02-06T06:03:24.907Z,2.74
2023-02-06T06:05:54.256Z,2.72
2023-02-06T06:08:21.036Z,2.64
2023-02-06T06:10:50.439Z,2.62
2023-02-06T06:13:17.327Z,2.61
2023-02-06T06:15:49.658Z,2.61
2023-02-06T06:18:16.226Z,2.23
2023-02-06T06:20:45.350Z,2.58
2023-02-06T06:23:12.019Z,2.46
2023-02-06T06:25:38.866Z,2.61
2023-02-06T06:28:08.242Z,2.70
2023-02-06T06:30:35.724Z,2.69
2023-02-06T06:33:02.406Z,2.72
2023-02-06T06:35:31.571Z,2.71
2023-02-06T06:37:58.131Z,2.39
2023-02-06T06:40:24.747Z,2.69
2023-02-06T06:42:51.490Z,2.44
2023-02-06T06:45:22.879Z,2.79
2023-02-06T06:47:51.803Z,2.77
2023-02-06T06:50:18.615Z,2.82
2023-02-06T06:52:45.144Z,2.68
2023-02-06T06:55:13.996Z,2.86
2023-02-06T06:57:45.298Z,2.89
2023-02-06T07:00:15.530Z,2.75
2023-02-06T07:02:44.720Z,2.17
2023-02-06T07:05:11.502Z,2.74
2023-02-06T07:07:39.484Z,2.51
2023-02-06T07:10:08.341Z,2.85
2023-02-06T07:12:35.295Z,2.92
2023-02-06T07:15:01.988Z,2.93
2023-02-06T07:17:28.585Z,2.82
2023-02-06T07:19:55.110Z,2.90
2023-02-06T07:22:22.068Z,2.96
2023-02-06T07:24:48.763Z,3.01
2023-02-06T07:27:15.606Z,3.01
2023-02-06T07:29:42.235Z,2.99
2023-02-06T07:32:09.191Z,3.06
2023-02-06T07:34:38.543Z,3.09
2023-02-06T07:37:05.163Z,3.09
2023-02-06T07:39:31.746Z,2.98
2023-02-06T07:41:58.300Z,3.19
2023-02-06T07:44:24.871Z,2.97
2023-02-06T07:46:53.059Z,3.28
2023-02-06T07:49:19.694Z,3.32
2023-02-06T07:51:46.842Z,3.28
2023-02-06T07:54:16.199Z,3.40
2023-02-06T07:56:43.425Z,3.29
2023-02-06T07:59:10.172Z,3.47
2023-02-06T08:01:38.965Z,3.49
2023-02-06T08:04:05.567Z,3.55
2023-02-06T08:06:32.320Z,3.50
2023-02-06T08:08:59.009Z,3.52
2023-02-06T08:11:27.812Z,3.53
2023-02-06T08:13:54.479Z,3.57
2023-02-06T08:16:23.182Z,3.71
2023-02-06T08:18:50.227Z,3.77
2023-02-06T08:21:21.872Z,3.77
2023-02-06T08:23:54.919Z,3.86
2023-02-06T08:26:22.147Z,3.90
2023-02-06T08:28:52.344Z,4.00
2023-02-06T08:31:27.003Z,4.07
2023-02-06T08:33:56.042Z,3.99
2023-02-06T08:36:24.277Z,4.16
2023-02-06T08:38:52.440Z,4.25
2023-02-06T08:41:24.905Z,4.27
2023-02-06T08:43:54.598Z,4.38
2023-02-06T08:46:25.221Z,4.45
2023-02-06T08:49:04.977Z,4.54
2023-02-06T08:51:33.523Z,4.60
2023-02-06T08:54:03.262Z,4.63
2023-02-06T08:56:31.099Z,4.67
2023-02-06T08:59:04.145Z,4.41
2023-02-06T09:01:33.064Z,4.85
2023-02-06T09:04:02.940Z,4.79
2023-02-06T09:06:29.881Z,5.01
2023-02-06T09:08:57.320Z,5.11
2023-02-06T09:11:27.365Z,5.27
2023-02-06T09:13:59.416Z,5.45
2023-02-06T09:16:29.578Z,5.68
2023-02-06T09:19:01.648Z,5.80
2023-02-06T09:21:35.663Z,5.96
2023-02-06T09:24:05.525Z,5.66
2023-02-06T09:26:58.467Z,6.16
2023-02-06T09:29:26.850Z,6.35
2023-02-06T09:31:53.452Z,6.49
2023-02-06T09:34:25.838Z,6.63
2023-02-06T09:36:54.664Z,6.70
2023-02-06T09:39:22.080Z,6.60
2023-02-06T09:42:15.592Z,6.95
2023-02-06T09:44:44.398Z,7.04
2023-02-06T09:47:22.970Z,7.22
2023-02-06T09:49:57.731Z,7.39
2023-02-06T09:52:24.289Z,7.44
2023-02-06T09:54:53.630Z,7.59
2023-02-06T09:57:43.787Z,7.83
2023-02-06T10:00:34.320Z,7.87
2023-02-06T10:03:26.187Z,7.94
2023-02-06T10:06:09.183Z,7.99
2023-02-06T10:08:40.612Z,7.93
2023-02-06T10:11:30.208Z,7.82
2023-02-06T10:14:04.788Z,7.73
2023-02-06T10:16:46.169Z,7.64
2023-02-06T10:19:24.839Z,7.14
2023-02-06T10:22:14.023Z,7.45
2023-02-06T10:24:47.643Z,7.33
2023-02-06T10:27:15.260Z,7.23
2023-02-06T10:29:45.101Z,7.15
2023-02-06T10:32:33.866Z,7.20
2023-02-06T10:35:13.040Z,7.17
2023-02-06T10:38:05.055Z,7.11
2023-02-06T10:40:41.521Z,7.07
2023-02-06T10:43:31.690Z,7.06
2023-02-06T10:46:09.536Z,7.04
2023-02-06T10:48:48.358Z,7.06
2023-02-06T10:51:24.893Z,7.10
2023-02-06T10:53:54.449Z,7.23
2023-02-06T10:56:26.717Z,7.27
2023-02-06T10:59:09.564Z,7.50
2023-02-06T11:01:39.941Z,7.77
2023-02-06T11:04:21.578Z,8.01
2023-02-06T11:06:48.190Z,8.37
2023-02-06T11:09:16.033Z,8.47
2023-02-06T11:11:48.597Z,8.64
2023-02-06T11:14:28.064Z,8.70
2023-02-06T11:16:54.700Z,8.82
2023-02-06T11:19:30.465Z,8.76
2023-02-06T11:22:13.482Z,8.56
2023-02-06T11:24:59.869Z,8.33
2023-02-06T11:27:27.785Z,8.35
2023-02-06T11:29:54.728Z,8.27
2023-02-06T11:32:41.574Z,8.23
2023-02-06T11:35:26.380Z,8.18
2023-02-06T11:38:05.654Z,8.03
2023-02-06T11:40:34.934Z,8.00
2023-02-06T11:43:19.597Z,8.02
2023-02-06T11:45:52.316Z,7.89
2023-02-06T11:48:30.840Z,7.76
2023-02-06T11:50:57.775Z,7.74
2023-02-06T11:53:24.378Z,7.95
2023-02-06T11:56:18.793Z,8.14
2023-02-06T11:59:01.849Z,8.15
2023-02-06T12:01:37.739Z,8.35
2023-02-06T12:04:04.743Z,8.49
2023-02-06T12:06:38.380Z,8.41
2023-02-06T12:09:11.459Z,8.54
2023-02-06T12:11:41.074Z,8.70
2023-02-06T12:14:15.511Z,8.64
2023-02-06T12:16:45.725Z,8.70
2023-02-06T12:19:19.822Z,8.80
2023-02-06T12:21:50.413Z,8.85
2023-02-06T12:24:38.487Z,9.02
2023-02-06T12:27:17.378Z,9.09
2023-02-06T12:29:51.209Z,9.10
2023-02-06T12:32:22.091Z,9.21
2023-02-06T12:34:55.904Z,9.40
2023-02-06T12:37:32.556Z,9.46
2023-02-06T12:40:00.806Z,9.59
2023-02-06T12:42:46.256Z,9.68
2023-02-06T12:45:17.632Z,9.71
2023-02-06T12:47:55.690Z,9.88
2023-02-06T12:50:28.039Z,9.93
2023-02-06T12:53:12.993Z,9.68
2023-02-06T12:55:49.155Z,9.26
2023-02-06T12:58:26.192Z,9.51
2023-02-06T13:01:12.076Z,9.30
2023-02-06T13:03:59.558Z,9.02
2023-02-06T13:06:43.759Z,9.07
2023-02-06T13:09:20.643Z,9.05
2023-02-06T13:11:47.616Z,8.70
2023-02-06T13:14:27.978Z,9.32
2023-02-06T13:17:12.933Z,9.24
2023-02-06T13:19:39.443Z,9.18
2023-02-06T13:22:13.520Z,9.22
2023-02-06T13:24:42.370Z,9.13
2023-02-06T13:27:11.872Z,9.12
2023-02-06T13:29:43.986Z,9.04
2023-02-06T13:32:10.560Z,9.14
2023-02-06T13:35:15.667Z,9.21
2023-02-06T13:37:50.574Z,9.29
2023-02-06T13:40:32.256Z,9.45
2023-02-06T13:43:01.597Z,9.45
2023-02-06T13:45:36.622Z,9.38
2023-02-06T13:48:10.189Z,9.37
2023-02-06T13:50:51.954Z,9.27
2023-02-06T13:53:39.858Z,9.11
2023-02-06T13:56:09.410Z,8.98
2023-02-06T13:58:41.471Z,8.91
2023-02-06T14:01:20.257Z,8.89
2023-02-06T14:03:52.832Z,8.83
2023-02-06T14:07:01.006Z,8.80
2023-02-06T14:09:30.687Z,8.81
2023-02-06T14:12:39.398Z,8.94
2023-02-06T14:15:24.598Z,8.94
2023-02-06T14:18:10.621Z,8.94
2023-02-06T14:21:14.758Z,8.98
2023-02-06T14:24:00.012Z,9.18
2023-02-06T14:26:35.925Z,9.38
2023-02-06T14:29:17.816Z,9.46
2023-02-06T14:32:13.800Z,9.47
2023-02-06T14:35:17.806Z,9.38
2023-02-06T14:38:22.185Z,9.29
2023-02-06T14:40:55.288Z,9.21
2023-02-06T14:43:28.898Z,9.15
2023-02-06T14:46:07.566Z,9.22
2023-02-06T14:48:46.158Z,9.19
2023-02-06T14:51:36.338Z,9.16
2023-02-06T14:54:06.476Z,9.13
2023-02-06T14:56:34.470Z,9.16
2023-02-06T14:59:13.040Z,9.14
2023-02-06T15:01:40.957Z,9.15
2023-02-06T15:04:14.940Z,9.09
2023-02-06T15:06:52.735Z,8.95
2023-02-06T15:09:34.787Z,9.05
2023-02-06T15:12:04.909Z,8.75
2023-02-06T15:14:34.077Z,9.06
2023-02-06T15:17:02.644Z,8.63
2023-02-06T15:19:35.550Z,8.92
2023-02-06T15:22:11.709Z,9.01
2023-02-06T15:25:10.635Z,8.97
2023-02-06T15:27:38.850Z,8.95
2023-02-06T15:30:21.059Z,8.84
2023-02-06T15:32:50.758Z,8.88
2023-02-06T15:35:36.956Z,8.90
2023-02-06T15:38:24.701Z,8.85
2023-02-06T15:40:56.873Z,8.82
2023-02-06T15:43:27.218Z,8.82
2023-02-06T15:45:59.334Z,8.73
2023-02-06T15:48:30.547Z,8.79
2023-02-06T15:51:02.363Z,8.74
2023-02-06T15:53:40.025Z,8.55
2023-02-06T15:56:16.887Z,8.67
2023-02-06T15:58:43.569Z,8.63
2023-02-06T16:01:20.362Z,8.64
2023-02-06T16:03:53.077Z,8.55
2023-02-06T16:06:19.758Z,8.58
2023-02-06T16:08:54.482Z,8.60
2023-02-06T16:11:40.611Z,8.47
2023-02-06T16:14:07.382Z,8.47
2023-02-06T16:16:34.161Z,8.36
2023-02-06T16:19:20.779Z,8.43
2023-02-06T16:22:13.997Z,8.38
2023-02-06T16:24:43.901Z,8.33
2023-02-06T16:27:24.529Z,8.30
2023-02-06T16:29:55.899Z,8.09
2023-02-06T16:32:28.404Z,8.26
2023-02-06T16:34:55.546Z,8.24
2023-02-06T16:37:29.012Z,8.27
2023-02-06T16:39:56.500Z,8.29
2023-02-06T16:42:32.918Z,8.15
2023-02-06T16:45:01.676Z,8.24
2023-02-06T16:47:28.384Z,8.26
2023-02-06T16:49:55.105Z,8.18
2023-02-06T16:52:31.205Z,8.24
2023-02-06T16:54:59.098Z,8.22
2023-02-06T16:57:32.359Z,8.21
2023-02-06T16:59:59.326Z,8.19
2023-02-06T17:02:26.916Z,8.07
2023-02-06T17:04:54.324Z,8.14
2023-02-06T17:07:23.852Z,7.84
2023-02-06T17:09:52.165Z,7.87
2023-02-06T17:12:22.459Z,7.75
2023-02-06T17:14:51.507Z,7.67
2023-02-06T17:17:21.125Z,7.56
2023-02-06T17:19:48.794Z,7.46
2023-02-06T17:22:16.387Z,7.39
2023-02-06T17:24:43.853Z,7.31
2023-02-06T17:27:19.695Z,7.17
2023-02-06T17:29:47.679Z,7.16
2023-02-06T17:32:16.238Z,7.03
2023-02-06T17:34:43.035Z,6.99
2023-02-06T17:37:20.516Z,6.84
2023-02-06T17:39:49.405Z,6.47
2023-02-06T17:42:23.035Z,6.79
2023-02-06T17:44:49.997Z,6.70
2023-02-06T17:47:16.865Z,6.58
2023-02-06T17:49:43.576Z,6.51
2023-02-06T17:52:10.248Z,6.42
2023-02-06T17:54:36.873Z,6.39
2023-02-06T17:57:03.730Z,6.32
2023-02-06T17:59:30.295Z,6.27
2023-02-06T18:01:57.084Z,6.14
2023-02-06T18:04:24.733Z,6.18
2023-02-06T18:06:53.604Z,6.13
2023-02-06T18:09:20.361Z,6.08
2023-02-06T18:11:47.035Z,6.01
2023-02-06T18:14:13.601Z,5.91
2023-02-06T18:16:42.882Z,5.91
2023-02-06T18:19:10.551Z,5.84
2023-02-06T18:21:37.117Z,5.78
2023-02-06T18:24:04.074Z,5.57
2023-02-06T18:26:30.685Z,5.55
2023-02-06T18:28:57.246Z,5.60
2023-02-06T18:31:27.440Z,5.56
2023-02-06T18:33:55.581Z,5.53
2023-02-06T18:36:23.275Z,5.47
2023-02-06T18:38:50.445Z,5.41
2023-02-06T18:41:36.022Z,5.38
2023-02-06T18:44:07.830Z,5.30
2023-02-06T18:46:34.875Z,5.24
2023-02-06T18:49:01.540Z,5.19
2023-02-06T18:51:29.463Z,5.05
2023-02-06T18:53:57.562Z,5.03
2023-02-06T18:56:24.784Z,5.08
2023-02-06T18:58:51.595Z,5.04
2023-02-06T19:01:23.456Z,4.95
2023-02-06T19:03:50.975Z,4.92
2023-02-06T19:06:31.868Z,4.89
2023-02-06T19:08:59.002Z,4.71
2023-02-06T19:11:26.008Z,4.78
2023-02-06T19:13:53.183Z,4.71
2023-02-06T19:16:23.218Z,4.68
2023-02-06T19:18:49.897Z,4.65
2023-02-06T19:21:21.245Z,4.61
2023-02-06T19:23:57.533Z,4.50
2023-02-06T19:26:25.053Z,4.40
2023-02-06T19:28:52.517Z,4.48
2023-02-06T19:31:25.537Z,3.99
2023-02-06T19:33:55.904Z,4.40
2023-02-06T19:36:24.268Z,4.33
2023-02-06T19:38:55.355Z,4.30
2023-02-06T19:41:24.007Z,4.22
2023-02-06T19:43:54.956Z,4.24
2023-02-06T19:46:24.444Z,4.19
2023-02-06T19:48:52.274Z,4.13
2023-02-06T19:51:20.230Z,4.10
2023-02-06T19:53:49.181Z,4.06
2023-02-06T19:56:24.672Z,3.90
2023-02-06T19:58:58.514Z,3.83
2023-02-06T20:01:26.636Z,3.92
2023-02-06T20:03:53.563Z,3.82
2023-02-06T20:06:21.662Z,3.86
2023-02-06T20:08:48.487Z,3.65
2023-02-06T20:11:19.291Z,3.78
2023-02-06T20:13:46.998Z,3.77
2023-02-06T20:16:18.629Z,3.77
2023-02-06T20:18:45.217Z,3.64
2023-02-06T20:21:43.086Z,3.66
2023-02-06T20:24:18.445Z,3.48
2023-02-06T20:26:45.640Z,3.38
2023-02-06T20:29:21.620Z,3.55
2023-02-06T20:31:49.467Z,3.49
2023-02-06T20:34:17.443Z,3.50
2023-02-06T20:36:45.144Z,3.48
2023-02-06T20:39:13.725Z,3.01
2023-02-06T20:41:44.077Z,3.00
2023-02-06T20:44:12.340Z,3.39
2023-02-06T20:46:40.098Z,3.37
2023-02-06T20:49:10.670Z,3.33
2023-02-06T20:51:37.298Z,3.28
2023-02-06T20:54:04.439Z,3.25
2023-02-06T20:56:33.346Z,3.20
2023-02-06T20:59:01.338Z,2.98
2023-02-06T21:01:32.339Z,3.14
2023-02-06T21:04:02.742Z,3.10
2023-02-06T21:06:30.607Z,2.67
2023-02-06T21:09:00.231Z,2.54
2023-02-06T21:11:34.091Z,3.02
2023-02-06T21:14:03.992Z,2.89
2023-02-06T21:16:31.770Z,2.60
2023-02-06T21:19:01.028Z,2.93
2023-02-06T21:21:27.979Z,2.87
2023-02-06T21:23:56.910Z,2.90
2023-02-06T21:26:24.776Z,2.91
2023-02-06T21:28:54.205Z,2.90
2023-02-06T21:31:34.171Z,2.32
2023-02-06T21:34:09.101Z,2.84
2023-02-06T21:36:38.172Z,2.69
2023-02-06T21:39:08.420Z,2.75
2023-02-06T21:41:37.571Z,2.76
2023-02-06T21:44:04.571Z,2.74
2023-02-06T21:46:33.586Z,2.62
2023-02-06T21:49:02.636Z,2.70
2023-02-06T21:51:29.596Z,2.65
2023-02-06T21:53:56.948Z,2.58
2023-02-06T21:56:26.750Z,2.61
2023-02-06T21:58:53.713Z,2.58
2023-02-06T22:01:26.325Z,2.54
2023-02-06T22:03:55.726Z,2.50
2023-02-06T22:06:22.526Z,2.47
2023-02-06T22:08:55.519Z,2.44
2023-02-06T22:11:23.575Z,2.43
2023-02-06T22:13:51.089Z,2.40
2023-02-06T22:16:21.590Z,2.40
2023-02-06T22:18:48.510Z,2.39
2023-02-06T22:21:21.069Z,2.37
2023-02-06T22:23:49.410Z,1.95
2023-02-06T22:26:18.828Z,2.10
2023-02-06T22:28:48.429Z,2.26
2023-02-06T22:31:19.581Z,2.24
2023-02-06T22:33:46.756Z,1.97
2023-02-06T22:36:15.767Z,2.17
2023-02-06T22:38:44.300Z,2.16
2023-02-06T22:41:14.747Z,2.13
2023-02-06T22:43:45.355Z,1.98
2023-02-06T22:46:21.825Z,2.05
2023-02-06T22:48:48.785Z,2.01
2023-02-06T22:51:15.453Z,1.88
2023-02-06T22:53:42.481Z,1.91
2023-02-06T22:56:34.952Z,1.77
2023-02-06T22:59:12.096Z,1.91
2023-02-06T23:01:46.144Z,1.90
2023-02-06T23:04:28.418Z,1.87
2023-02-06T23:06:55.425Z,1.72
2023-02-06T23:09:29.151Z,1.83
2023-02-06T23:11:58.397Z,1.82
2023-02-06T23:14:28.404Z,1.46
2023-02-06T23:16:55.038Z,1.77
2023-02-06T23:19:24.444Z,1.73
2023-02-06T23:21:52.083Z,1.68
2023-02-06T23:24:19.543Z,1.57
2023-02-06T23:26:48.758Z,1.64
2023-02-06T23:29:17.969Z,1.15
2023-02-06T23:31:48.572Z,1.44
2023-02-06T23:34:16.253Z,1.58
2023-02-06T23:36:43.617Z,1.42
2023-02-06T23:39:12.866Z,1.43
2023-02-06T23:41:40.196Z,1.41
2023-02-06T23:44:08.329Z,1.36
2023-02-06T23:46:37.024Z,1.45
2023-02-06T23:49:04.260Z,1.41
2023-02-06T23:51:32.975Z,1.32
2023-02-06T23:53:59.733Z,1.35
2023-02-06T23:56:29.076Z,1.21
2023-02-06T23:58:57.202Z,1.28
